sensor_id;sensor_type;location;lat;lon;timestamp;P1;durP1;ratioP1;P2;durP2;ratioP2
5357;SDS011;2702;51.014;7.170;2023-03-01T00:01:02;7.40;;;6.28;;
5357;SDS011;2702;51.014;7.170;2023-03-01T00:03:33;7.03;;;6.15;;
5357;SDS011;2702;51.014;7.170;2023-03-01T00:05:59;9.15;;;7.00;;
5357;SDS011;2702;51.014;7.170;2023-03-01T00:08:26;7.78;;;6.38;;
5357;SDS011;2702;51.014;7.170;2023-03-01T00:13:45;6.43;;;5.72;;
5357;SDS011;2702;51.014;7.170;2023-03-01T00:16:17;7.25;;;5.78;;
5357;SDS011;2702;51.014;7.170;2023-03-01T00:18:48;7.03;;;6.20;;
5357;SDS011;2702;51.014;7.170;2023-03-01T00:21:14;6.28;;;5.70;;
5357;SDS011;2702;51.014;7.170;2023-03-01T00:23:40;7.05;;;6.38;;
5357;SDS011;2702;51.014;7.170;2023-03-01T00:26:07;7.80;;;6.22;;
5357;SDS011;2702;51.014;7.170;2023-03-01T00:28:35;6.93;;;6.22;;
5357;SDS011;2702;51.014;7.170;2023-03-01T00:33:31;8.65;;;5.65;;
5357;SDS011;2702;51.014;7.170;2023-03-01T00:35:58;6.55;;;5.78;;
5357;SDS011;2702;51.014;7.170;2023-03-01T00:38:24;7.15;;;5.63;;
5357;SDS011;2702;51.014;7.170;2023-03-01T00:40:50;8.37;;;5.63;;
5357;SDS011;2702;51.014;7.170;2023-03-01T00:43:16;6.90;;;5.50;;
5357;SDS011;2702;51.014;7.170;2023-03-01T00:45:41;8.50;;;5.63;;
5357;SDS011;2702;51.014;7.170;2023-03-01T00:48:07;6.87;;;5.60;;
5357;SDS011;2702;51.014;7.170;2023-03-01T00:50:33;5.87;;;5.30;;
5357;SDS011;2702;51.014;7.170;2023-03-01T00:52:59;6.70;;;5.97;;
5357;SDS011;2702;51.014;7.170;2023-03-01T00:55:25;8.67;;;6.80;;
5357;SDS011;2702;51.014;7.170;2023-03-01T00:57:51;7.13;;;6.43;;
5357;SDS011;2702;51.014;7.170;2023-03-01T01:00:18;8.07;;;6.70;;
5357;SDS011;2702;51.014;7.170;2023-03-01T01:02:45;6.97;;;6.15;;
5357;SDS011;2702;51.014;7.170;2023-03-01T01:05:11;7.30;;;6.18;;
5357;SDS011;2702;51.014;7.170;2023-03-01T01:07:37;7.40;;;6.70;;
5357;SDS011;2702;51.014;7.170;2023-03-01T01:10:03;8.63;;;6.30;;
5357;SDS011;2702;51.014;7.170;2023-03-01T01:12:29;7.05;;;6.35;;
5357;SDS011;2702;51.014;7.170;2023-03-01T01:14:55;8.00;;;6.20;;
5357;SDS011;2702;51.014;7.170;2023-03-01T01:17:22;7.93;;;6.70;;
5357;SDS011;2702;51.014;7.170;2023-03-01T01:19:47;9.50;;;6.93;;
5357;SDS011;2702;51.014;7.170;2023-03-01T01:22:14;7.57;;;6.75;;
5357;SDS011;2702;51.014;7.170;2023-03-01T01:24:39;7.83;;;6.47;;
5357;SDS011;2702;51.014;7.170;2023-03-01T01:27:05;6.77;;;6.07;;
5357;SDS011;2702;51.014;7.170;2023-03-01T01:29:32;8.80;;;6.57;;
5357;SDS011;2702;51.014;7.170;2023-03-01T01:31:58;7.80;;;7.00;;
5357;SDS011;2702;51.014;7.170;2023-03-01T01:34:24;7.33;;;6.10;;
5357;SDS011;2702;51.014;7.170;2023-03-01T01:36:51;6.83;;;5.97;;
5357;SDS011;2702;51.014;7.170;2023-03-01T01:39:21;8.73;;;7.07;;
5357;SDS011;2702;51.014;7.170;2023-03-01T01:41:47;7.60;;;6.75;;
5357;SDS011;2702;51.014;7.170;2023-03-01T01:44:24;7.78;;;6.82;;
5357;SDS011;2702;51.014;7.170;2023-03-01T01:49:47;7.75;;;6.95;;
5357;SDS011;2702;51.014;7.170;2023-03-01T01:52:17;9.35;;;6.13;;
5357;SDS011;2702;51.014;7.170;2023-03-01T01:54:57;7.75;;;6.70;;
5357;SDS011;2702;51.014;7.170;2023-03-01T01:57:32;9.85;;;7.20;;
5357;SDS011;2702;51.014;7.170;2023-03-01T02:00:11;8.63;;;6.70;;
5357;SDS011;2702;51.014;7.170;2023-03-01T02:02:39;7.45;;;6.20;;
5357;SDS011;2702;51.014;7.170;2023-03-01T02:08:11;10.15;;;6.95;;
5357;SDS011;2702;51.014;7.170;2023-03-01T02:10:39;10.20;;;7.20;;
5357;SDS011;2702;51.014;7.170;2023-03-01T02:13:06;7.53;;;6.63;;
5357;SDS011;2702;51.014;7.170;2023-03-01T02:15:33;7.15;;;6.32;;
5357;SDS011;2702;51.014;7.170;2023-03-01T02:18:01;7.70;;;6.82;;
5357;SDS011;2702;51.014;7.170;2023-03-01T02:23:08;7.75;;;6.90;;
5357;SDS011;2702;51.014;7.170;2023-03-01T02:25:40;7.23;;;6.53;;
5357;SDS011;2702;51.014;7.170;2023-03-01T02:30:38;9.80;;;7.00;;
5357;SDS011;2702;51.014;7.170;2023-03-01T02:33:26;8.48;;;7.50;;
5357;SDS011;2702;51.014;7.170;2023-03-01T02:35:52;7.80;;;6.80;;
5357;SDS011;2702;51.014;7.170;2023-03-01T02:38:20;8.52;;;7.60;;
5357;SDS011;2702;51.014;7.170;2023-03-01T02:40:47;7.70;;;6.40;;
5357;SDS011;2702;51.014;7.170;2023-03-01T02:43:15;10.73;;;8.27;;
5357;SDS011;2702;51.014;7.170;2023-03-01T02:45:48;9.30;;;7.10;;
5357;SDS011;2702;51.014;7.170;2023-03-01T02:48:16;8.93;;;7.22;;
5357;SDS011;2702;51.014;7.170;2023-03-01T02:53:39;7.65;;;6.70;;
5357;SDS011;2702;51.014;7.170;2023-03-01T02:56:11;8.07;;;6.95;;
5357;SDS011;2702;51.014;7.170;2023-03-01T02:58:42;11.20;;;8.05;;
5357;SDS011;2702;51.014;7.170;2023-03-01T03:01:16;10.88;;;7.38;;
5357;SDS011;2702;51.014;7.170;2023-03-01T03:03:43;8.68;;;7.82;;
5357;SDS011;2702;51.014;7.170;2023-03-01T03:06:09;10.63;;;8.00;;
5357;SDS011;2702;51.014;7.170;2023-03-01T03:08:35;10.00;;;7.80;;
5357;SDS011;2702;51.014;7.170;2023-03-01T03:11:02;8.00;;;6.80;;
5357;SDS011;2702;51.014;7.170;2023-03-01T03:13:28;11.50;;;8.90;;
5357;SDS011;2702;51.014;7.170;2023-03-01T03:15:55;8.80;;;7.40;;
5357;SDS011;2702;51.014;7.170;2023-03-01T03:18:22;9.93;;;7.68;;
5357;SDS011;2702;51.014;7.170;2023-03-01T03:20:51;9.15;;;8.23;;
5357;SDS011;2702;51.014;7.170;2023-03-01T03:23:18;10.20;;;8.82;;
5357;SDS011;2702;51.014;7.170;2023-03-01T03:25:47;11.27;;;8.82;;
5357;SDS011;2702;51.014;7.170;2023-03-01T03:28:14;11.50;;;8.85;;
5357;SDS011;2702;51.014;7.170;2023-03-01T03:30:41;9.50;;;8.45;;
5357;SDS011;2702;51.014;7.170;2023-03-01T03:33:09;9.15;;;8.02;;
5357;SDS011;2702;51.014;7.170;2023-03-01T03:35:43;12.48;;;8.20;;
5357;SDS011;2702;51.014;7.170;2023-03-01T03:38:12;12.65;;;8.30;;
5357;SDS011;2702;51.014;7.170;2023-03-01T03:40:46;13.43;;;9.43;;
5357;SDS011;2702;51.014;7.170;2023-03-01T03:43:44;11.48;;;8.50;;
5357;SDS011;2702;51.014;7.170;2023-03-01T03:46:11;10.05;;;8.13;;
5357;SDS011;2702;51.014;7.170;2023-03-01T03:48:39;11.10;;;8.75;;
5357;SDS011;2702;51.014;7.170;2023-03-01T03:51:09;13.05;;;9.73;;
5357;SDS011;2702;51.014;7.170;2023-03-01T03:53:40;15.90;;;9.52;;
5357;SDS011;2702;51.014;7.170;2023-03-01T03:56:06;8.82;;;7.00;;
5357;SDS011;2702;51.014;7.170;2023-03-01T03:58:33;9.77;;;7.93;;
5357;SDS011;2702;51.014;7.170;2023-03-01T04:00:59;9.60;;;8.05;;
5357;SDS011;2702;51.014;7.170;2023-03-01T04:03:26;10.10;;;8.02;;
5357;SDS011;2702;51.014;7.170;2023-03-01T04:05:54;9.75;;;8.75;;
5357;SDS011;2702;51.014;7.170;2023-03-01T04:08:22;10.70;;;8.23;;
5357;SDS011;2702;51.014;7.170;2023-03-01T04:10:50;12.70;;;8.73;;
5357;SDS011;2702;51.014;7.170;2023-03-01T04:13:19;10.57;;;8.60;;
5357;SDS011;2702;51.014;7.170;2023-03-01T04:15:50;10.98;;;8.30;;
5357;SDS011;2702;51.014;7.170;2023-03-01T04:18:17;11.68;;;9.27;;
5357;SDS011;2702;51.014;7.170;2023-03-01T04:20:44;9.02;;;8.07;;
5357;SDS011;2702;51.014;7.170;2023-03-01T04:23:20;12.73;;;9.05;;
5357;SDS011;2702;51.014;7.170;2023-03-01T04:25:47;11.77;;;8.23;;
5357;SDS011;2702;51.014;7.170;2023-03-01T04:28:21;12.57;;;9.63;;
5357;SDS011;2702;51.014;7.170;2023-03-01T04:30:49;12.73;;;9.45;;
5357;SDS011;2702;51.014;7.170;2023-03-01T04:33:16;9.25;;;8.25;;
5357;SDS011;2702;51.014;7.170;2023-03-01T04:35:42;10.40;;;8.85;;
5357;SDS011;2702;51.014;7.170;2023-03-01T04:38:08;9.70;;;8.30;;
5357;SDS011;2702;51.014;7.170;2023-03-01T04:40:35;9.70;;;8.63;;
5357;SDS011;2702;51.014;7.170;2023-03-01T04:43:01;12.30;;;8.05;;
5357;SDS011;2702;51.014;7.170;2023-03-01T04:45:29;11.05;;;9.13;;
5357;SDS011;2702;51.014;7.170;2023-03-01T04:47:56;10.63;;;8.90;;
5357;SDS011;2702;51.014;7.170;2023-03-01T04:50:23;10.82;;;8.10;;
5357;SDS011;2702;51.014;7.170;2023-03-01T04:52:51;12.30;;;8.60;;
5357;SDS011;2702;51.014;7.170;2023-03-01T04:55:17;12.70;;;10.73;;
5357;SDS011;2702;51.014;7.170;2023-03-01T04:57:43;9.93;;;8.60;;
5357;SDS011;2702;51.014;7.170;2023-03-01T05:00:10;13.55;;;9.93;;
5357;SDS011;2702;51.014;7.170;2023-03-01T05:05:14;10.20;;;8.50;;
5357;SDS011;2702;51.014;7.170;2023-03-01T05:07:40;12.65;;;9.38;;
5357;SDS011;2702;51.014;7.170;2023-03-01T05:10:06;14.90;;;9.47;;
5357;SDS011;2702;51.014;7.170;2023-03-01T05:12:33;12.13;;;8.75;;
5357;SDS011;2702;51.014;7.170;2023-03-01T05:14:59;12.63;;;8.87;;
5357;SDS011;2702;51.014;7.170;2023-03-01T05:17:24;11.63;;;10.33;;
5357;SDS011;2702;51.014;7.170;2023-03-01T05:19:50;10.43;;;8.70;;
5357;SDS011;2702;51.014;7.170;2023-03-01T05:22:16;11.93;;;9.20;;
5357;SDS011;2702;51.014;7.170;2023-03-01T05:24:42;11.53;;;9.63;;
5357;SDS011;2702;51.014;7.170;2023-03-01T05:27:08;12.50;;;10.10;;
5357;SDS011;2702;51.014;7.170;2023-03-01T05:29:34;10.97;;;9.20;;
5357;SDS011;2702;51.014;7.170;2023-03-01T05:32:00;13.25;;;10.02;;
5357;SDS011;2702;51.014;7.170;2023-03-01T05:34:31;11.40;;;8.85;;
5357;SDS011;2702;51.014;7.170;2023-03-01T05:36:59;14.40;;;9.98;;
5357;SDS011;2702;51.014;7.170;2023-03-01T05:39:26;11.50;;;9.35;;
5357;SDS011;2702;51.014;7.170;2023-03-01T05:41:53;13.13;;;8.65;;
5357;SDS011;2702;51.014;7.170;2023-03-01T05:44:21;13.05;;;8.93;;
5357;SDS011;2702;51.014;7.170;2023-03-01T05:46:48;11.43;;;9.38;;
5357;SDS011;2702;51.014;7.170;2023-03-01T05:49:14;13.50;;;9.95;;
5357;SDS011;2702;51.014;7.170;2023-03-01T05:51:41;13.02;;;9.10;;
5357;SDS011;2702;51.014;7.170;2023-03-01T05:54:09;15.35;;;10.23;;
5357;SDS011;2702;51.014;7.170;2023-03-01T05:56:35;11.93;;;9.70;;
5357;SDS011;2702;51.014;7.170;2023-03-01T05:59:02;11.98;;;9.50;;
5357;SDS011;2702;51.014;7.170;2023-03-01T06:01:30;11.45;;;10.25;;
5357;SDS011;2702;51.014;7.170;2023-03-01T06:03:57;12.00;;;9.57;;
5357;SDS011;2702;51.014;7.170;2023-03-01T06:06:23;12.33;;;9.70;;
5357;SDS011;2702;51.014;7.170;2023-03-01T06:08:49;13.70;;;10.00;;
5357;SDS011;2702;51.014;7.170;2023-03-01T06:11:15;15.00;;;10.00;;
5357;SDS011;2702;51.014;7.170;2023-03-01T06:13:42;15.10;;;10.87;;
5357;SDS011;2702;51.014;7.170;2023-03-01T06:16:08;14.23;;;10.10;;
5357;SDS011;2702;51.014;7.170;2023-03-01T06:18:35;15.20;;;9.87;;
5357;SDS011;2702;51.014;7.170;2023-03-01T06:21:01;13.68;;;9.60;;
5357;SDS011;2702;51.014;7.170;2023-03-01T06:23:27;13.80;;;10.07;;
5357;SDS011;2702;51.014;7.170;2023-03-01T06:25:53;10.93;;;9.80;;
5357;SDS011;2702;51.014;7.170;2023-03-01T06:28:19;12.33;;;9.93;;
5357;SDS011;2702;51.014;7.170;2023-03-01T06:30:44;13.57;;;10.32;;
5357;SDS011;2702;51.014;7.170;2023-03-01T06:33:11;12.30;;;10.20;;
5357;SDS011;2702;51.014;7.170;2023-03-01T06:35:37;14.25;;;10.52;;
5357;SDS011;2702;51.014;7.170;2023-03-01T06:38:03;13.10;;;10.80;;
5357;SDS011;2702;51.014;7.170;2023-03-01T06:40:30;13.00;;;9.32;;
5357;SDS011;2702;51.014;7.170;2023-03-01T06:42:56;16.30;;;10.90;;
5357;SDS011;2702;51.014;7.170;2023-03-01T06:45:23;11.85;;;9.40;;
5357;SDS011;2702;51.014;7.170;2023-03-01T06:47:49;12.00;;;10.80;;
5357;SDS011;2702;51.014;7.170;2023-03-01T06:50:16;12.18;;;9.80;;
5357;SDS011;2702;51.014;7.170;2023-03-01T06:52:43;13.15;;;11.32;;
5357;SDS011;2702;51.014;7.170;2023-03-01T06:55:10;10.95;;;9.52;;
5357;SDS011;2702;51.014;7.170;2023-03-01T06:57:37;12.85;;;9.73;;
5357;SDS011;2702;51.014;7.170;2023-03-01T07:00:03;13.57;;;9.83;;
5357;SDS011;2702;51.014;7.170;2023-03-01T07:02:29;14.32;;;10.23;;
5357;SDS011;2702;51.014;7.170;2023-03-01T07:04:55;13.40;;;10.93;;
5357;SDS011;2702;51.014;7.170;2023-03-01T07:07:21;18.07;;;12.57;;
5357;SDS011;2702;51.014;7.170;2023-03-01T07:09:48;15.95;;;11.35;;
5357;SDS011;2702;51.014;7.170;2023-03-01T07:12:14;14.88;;;12.07;;
5357;SDS011;2702;51.014;7.170;2023-03-01T07:14:41;13.98;;;9.40;;
5357;SDS011;2702;51.014;7.170;2023-03-01T07:17:06;13.20;;;10.63;;
5357;SDS011;2702;51.014;7.170;2023-03-01T07:19:33;13.07;;;10.60;;
5357;SDS011;2702;51.014;7.170;2023-03-01T07:21:58;11.37;;;9.37;;
5357;SDS011;2702;51.014;7.170;2023-03-01T07:24:24;11.03;;;9.60;;
5357;SDS011;2702;51.014;7.170;2023-03-01T07:26:51;16.03;;;10.60;;
5357;SDS011;2702;51.014;7.170;2023-03-01T07:29:18;12.98;;;10.10;;
5357;SDS011;2702;51.014;7.170;2023-03-01T07:31:44;15.60;;;10.57;;
5357;SDS011;2702;51.014;7.170;2023-03-01T07:34:10;17.20;;;11.27;;
5357;SDS011;2702;51.014;7.170;2023-03-01T07:36:37;12.87;;;10.50;;
5357;SDS011;2702;51.014;7.170;2023-03-01T07:39:04;13.57;;;9.90;;
5357;SDS011;2702;51.014;7.170;2023-03-01T07:41:30;14.47;;;10.33;;
5357;SDS011;2702;51.014;7.170;2023-03-01T07:43:56;12.50;;;9.80;;
5357;SDS011;2702;51.014;7.170;2023-03-01T07:46:22;12.60;;;10.80;;
5357;SDS011;2702;51.014;7.170;2023-03-01T07:48:47;11.60;;;9.40;;
5357;SDS011;2702;51.014;7.170;2023-03-01T07:51:13;14.10;;;9.93;;
5357;SDS011;2702;51.014;7.170;2023-03-01T07:53:39;16.98;;;11.70;;
5357;SDS011;2702;51.014;7.170;2023-03-01T07:56:06;21.53;;;12.80;;
5357;SDS011;2702;51.014;7.170;2023-03-01T07:58:34;13.88;;;10.98;;
5357;SDS011;2702;51.014;7.170;2023-03-01T08:01:05;13.43;;;10.57;;
5357;SDS011;2702;51.014;7.170;2023-03-01T08:03:32;14.63;;;9.68;;
5357;SDS011;2702;51.014;7.170;2023-03-01T08:05:59;18.00;;;10.40;;
5357;SDS011;2702;51.014;7.170;2023-03-01T08:08:26;13.85;;;10.13;;
5357;SDS011;2702;51.014;7.170;2023-03-01T08:10:55;16.65;;;10.95;;
5357;SDS011;2702;51.014;7.170;2023-03-01T08:13:23;12.88;;;10.63;;
5357;SDS011;2702;51.014;7.170;2023-03-01T08:15:49;13.65;;;10.57;;
5357;SDS011;2702;51.014;7.170;2023-03-01T08:18:16;12.38;;;10.15;;
5357;SDS011;2702;51.014;7.170;2023-03-01T08:20:43;13.10;;;10.35;;
5357;SDS011;2702;51.014;7.170;2023-03-01T08:23:09;14.95;;;10.60;;
5357;SDS011;2702;51.014;7.170;2023-03-01T08:25:35;13.73;;;9.98;;
5357;SDS011;2702;51.014;7.170;2023-03-01T08:28:01;11.33;;;9.40;;
5357;SDS011;2702;51.014;7.170;2023-03-01T08:30:27;11.93;;;9.10;;
5357;SDS011;2702;51.014;7.170;2023-03-01T08:32:53;12.77;;;9.97;;
5357;SDS011;2702;51.014;7.170;2023-03-01T08:35:20;13.30;;;10.65;;
5357;SDS011;2702;51.014;7.170;2023-03-01T08:37:46;13.18;;;9.73;;
5357;SDS011;2702;51.014;7.170;2023-03-01T08:40:12;12.88;;;9.82;;
5357;SDS011;2702;51.014;7.170;2023-03-01T08:42:39;10.27;;;8.93;;
5357;SDS011;2702;51.014;7.170;2023-03-01T08:45:06;13.05;;;8.98;;
5357;SDS011;2702;51.014;7.170;2023-03-01T08:47:33;13.07;;;11.10;;
5357;SDS011;2702;51.014;7.170;2023-03-01T08:49:59;15.13;;;10.23;;
5357;SDS011;2702;51.014;7.170;2023-03-01T08:52:25;12.48;;;9.48;;
5357;SDS011;2702;51.014;7.170;2023-03-01T08:54:52;11.18;;;8.93;;
5357;SDS011;2702;51.014;7.170;2023-03-01T08:57:18;13.43;;;9.93;;
5357;SDS011;2702;51.014;7.170;2023-03-01T08:59:47;11.20;;;9.00;;
5357;SDS011;2702;51.014;7.170;2023-03-01T09:02:16;10.70;;;8.52;;
5357;SDS011;2702;51.014;7.170;2023-03-01T09:04:43;13.05;;;8.90;;
5357;SDS011;2702;51.014;7.170;2023-03-01T09:07:09;10.80;;;9.20;;
5357;SDS011;2702;51.014;7.170;2023-03-01T09:09:35;12.65;;;9.30;;
5357;SDS011;2702;51.014;7.170;2023-03-01T09:12:03;11.10;;;9.85;;
5357;SDS011;2702;51.014;7.170;2023-03-01T09:14:29;14.27;;;9.32;;
5357;SDS011;2702;51.014;7.170;2023-03-01T09:16:55;12.00;;;9.43;;
5357;SDS011;2702;51.014;7.170;2023-03-01T09:19:21;13.00;;;9.27;;
5357;SDS011;2702;51.014;7.170;2023-03-01T09:21:47;9.57;;;8.57;;
5357;SDS011;2702;51.014;7.170;2023-03-01T09:24:20;12.75;;;10.15;;
5357;SDS011;2702;51.014;7.170;2023-03-01T09:26:48;10.13;;;8.88;;
5357;SDS011;2702;51.014;7.170;2023-03-01T09:29:15;14.68;;;9.50;;
5357;SDS011;2702;51.014;7.170;2023-03-01T09:31:41;10.93;;;9.05;;
5357;SDS011;2702;51.014;7.170;2023-03-01T09:34:08;10.40;;;9.40;;
5357;SDS011;2702;51.014;7.170;2023-03-01T09:36:34;11.20;;;9.48;;
5357;SDS011;2702;51.014;7.170;2023-03-01T09:39:01;15.30;;;9.35;;
5357;SDS011;2702;51.014;7.170;2023-03-01T09:41:36;12.70;;;9.85;;
5357;SDS011;2702;51.014;7.170;2023-03-01T09:46:49;11.03;;;9.83;;
5357;SDS011;2702;51.014;7.170;2023-03-01T09:49:18;13.02;;;9.40;;
5357;SDS011;2702;51.014;7.170;2023-03-01T09:52:00;12.40;;;9.83;;
5357;SDS011;2702;51.014;7.170;2023-03-01T09:54:37;11.53;;;8.90;;
5357;SDS011;2702;51.014;7.170;2023-03-01T09:57:10;13.27;;;9.67;;
5357;SDS011;2702;51.014;7.170;2023-03-01T10:02:44;12.10;;;10.10;;
5357;SDS011;2702;51.014;7.170;2023-03-01T10:05:18;12.00;;;8.97;;
5357;SDS011;2702;51.014;7.170;2023-03-01T10:08:26;11.13;;;9.40;;
5357;SDS011;2702;51.014;7.170;2023-03-01T10:11:22;12.10;;;9.40;;
5357;SDS011;2702;51.014;7.170;2023-03-01T10:13:59;11.37;;;8.77;;
5357;SDS011;2702;51.014;7.170;2023-03-01T10:19:08;10.10;;;9.10;;
5357;SDS011;2702;51.014;7.170;2023-03-01T10:21:44;10.17;;;9.13;;
5357;SDS011;2702;51.014;7.170;2023-03-01T10:24:14;9.67;;;8.67;;
5357;SDS011;2702;51.014;7.170;2023-03-01T10:26:56;10.57;;;8.87;;
5357;SDS011;2702;51.014;7.170;2023-03-01T10:29:34;15.77;;;9.07;;
5357;SDS011;2702;51.014;7.170;2023-03-01T10:32:09;9.90;;;8.20;;
5357;SDS011;2702;51.014;7.170;2023-03-01T10:34:36;11.00;;;8.30;;
5357;SDS011;2702;51.014;7.170;2023-03-01T10:37:15;8.90;;;7.70;;
5357;SDS011;2702;51.014;7.170;2023-03-01T10:42:32;9.67;;;8.50;;
5357;SDS011;2702;51.014;7.170;2023-03-01T10:50:34;11.27;;;7.77;;
5357;SDS011;2702;51.014;7.170;2023-03-01T10:53:02;10.47;;;8.63;;
5357;SDS011;2702;51.014;7.170;2023-03-01T10:55:39;9.37;;;8.30;;
5357;SDS011;2702;51.014;7.170;2023-03-01T10:58:23;9.03;;;7.90;;
5357;SDS011;2702;51.014;7.170;2023-03-01T11:00:51;8.00;;;7.20;;
5357;SDS011;2702;51.014;7.170;2023-03-01T11:03:26;10.00;;;8.30;;
5357;SDS011;2702;51.014;7.170;2023-03-01T11:06:00;8.87;;;7.97;;
5357;SDS011;2702;51.014;7.170;2023-03-01T11:08:35;10.20;;;8.90;;
5357;SDS011;2702;51.014;7.170;2023-03-01T11:11:05;10.23;;;8.13;;
5357;SDS011;2702;51.014;7.170;2023-03-01T11:16:43;10.77;;;8.73;;
5357;SDS011;2702;51.014;7.170;2023-03-01T11:21:38;9.17;;;8.00;;
5357;SDS011;2702;51.014;7.170;2023-03-01T11:24:12;7.67;;;6.83;;
5357;SDS011;2702;51.014;7.170;2023-03-01T11:26:43;12.67;;;9.80;;
5357;SDS011;2702;51.014;7.170;2023-03-01T11:32:01;10.23;;;8.40;;
5357;SDS011;2702;51.014;7.170;2023-03-01T11:34:45;8.17;;;6.87;;
5357;SDS011;2702;51.014;7.170;2023-03-01T11:46:16;9.03;;;7.63;;
5357;SDS011;2702;51.014;7.170;2023-03-01T11:48:49;9.23;;;7.90;;
5357;SDS011;2702;51.014;7.170;2023-03-01T11:51:19;9.03;;;7.63;;
5357;SDS011;2702;51.014;7.170;2023-03-01T11:54:05;9.63;;;7.77;;
5357;SDS011;2702;51.014;7.170;2023-03-01T11:56:49;9.10;;;7.80;;
5357;SDS011;2702;51.014;7.170;2023-03-01T12:11:09;10.80;;;7.80;;
5357;SDS011;2702;51.014;7.170;2023-03-01T12:13:47;8.73;;;7.30;;
5357;SDS011;2702;51.014;7.170;2023-03-01T12:21:59;8.40;;;7.60;;
5357;SDS011;2702;51.014;7.170;2023-03-01T12:30:13;9.37;;;6.77;;
5357;SDS011;2702;51.014;7.170;2023-03-01T12:33:05;9.17;;;7.20;;
5357;SDS011;2702;51.014;7.170;2023-03-01T12:35:49;11.43;;;8.10;;
5357;SDS011;2702;51.014;7.170;2023-03-01T12:38:46;11.70;;;7.97;;
5357;SDS011;2702;51.014;7.170;2023-03-01T12:47:55;8.40;;;7.70;;
5357;SDS011;2702;51.014;7.170;2023-03-01T12:50:13;11.70;;;8.10;;
5357;SDS011;2702;51.014;7.170;2023-03-01T12:52:51;9.00;;;8.10;;
5357;SDS011;2702;51.014;7.170;2023-03-01T12:55:28;10.20;;;8.90;;
5357;SDS011;2702;51.014;7.170;2023-03-01T13:03:59;9.73;;;8.67;;
5357;SDS011;2702;51.014;7.170;2023-03-01T13:21:02;12.10;;;8.23;;
5357;SDS011;2702;51.014;7.170;2023-03-01T13:26:06;9.73;;;7.80;;
5357;SDS011;2702;51.014;7.170;2023-03-01T13:28:42;10.53;;;7.90;;
5357;SDS011;2702;51.014;7.170;2023-03-01T13:33:43;9.87;;;7.73;;
5357;SDS011;2702;51.014;7.170;2023-03-01T13:36:11;8.07;;;6.80;;
5357;SDS011;2702;51.014;7.170;2023-03-01T13:38:59;9.87;;;7.87;;
5357;SDS011;2702;51.014;7.170;2023-03-01T13:44:50;8.03;;;6.73;;
5357;SDS011;2702;51.014;7.170;2023-03-01T13:52:36;10.17;;;7.80;;
5357;SDS011;2702;51.014;7.170;2023-03-01T13:55:14;10.23;;;7.60;;
5357;SDS011;2702;51.014;7.170;2023-03-01T13:57:57;8.80;;;7.37;;
5357;SDS011;2702;51.014;7.170;2023-03-01T14:00:38;8.43;;;7.30;;
5357;SDS011;2702;51.014;7.170;2023-03-01T14:03:08;9.10;;;7.23;;
5357;SDS011;2702;51.014;7.170;2023-03-01T14:05:35;8.63;;;7.23;;
5357;SDS011;2702;51.014;7.170;2023-03-01T14:08:05;8.57;;;7.63;;
5357;SDS011;2702;51.014;7.170;2023-03-01T14:10:47;9.73;;;7.73;;
5357;SDS011;2702;51.014;7.170;2023-03-01T14:18:36;9.50;;;8.17;;
5357;SDS011;2702;51.014;7.170;2023-03-01T14:21:09;9.67;;;8.70;;
5357;SDS011;2702;51.014;7.170;2023-03-01T14:23:38;9.20;;;8.00;;
5357;SDS011;2702;51.014;7.170;2023-03-01T14:26:07;10.00;;;8.40;;
5357;SDS011;2702;51.014;7.170;2023-03-01T14:28:37;11.33;;;8.67;;
5357;SDS011;2702;51.014;7.170;2023-03-01T14:31:29;8.70;;;7.70;;
5357;SDS011;2702;51.014;7.170;2023-03-01T14:34:02;9.40;;;8.27;;
5357;SDS011;2702;51.014;7.170;2023-03-01T14:36:29;9.63;;;7.37;;
5357;SDS011;2702;51.014;7.170;2023-03-01T14:38:58;10.90;;;8.33;;
5357;SDS011;2702;51.014;7.170;2023-03-01T14:41:30;10.13;;;8.00;;
5357;SDS011;2702;51.014;7.170;2023-03-01T14:44:01;9.73;;;7.90;;
5357;SDS011;2702;51.014;7.170;2023-03-01T14:46:37;8.80;;;7.90;;
5357;SDS011;2702;51.014;7.170;2023-03-01T14:49:13;11.40;;;8.20;;
5357;SDS011;2702;51.014;7.170;2023-03-01T14:51:43;9.67;;;8.13;;
5357;SDS011;2702;51.014;7.170;2023-03-01T14:54:20;8.40;;;7.60;;
5357;SDS011;2702;51.014;7.170;2023-03-01T14:56:50;9.27;;;8.30;;
5357;SDS011;2702;51.014;7.170;2023-03-01T14:59:23;8.57;;;7.67;;
5357;SDS011;2702;51.014;7.170;2023-03-01T15:01:50;10.73;;;7.93;;
5357;SDS011;2702;51.014;7.170;2023-03-01T15:04:19;8.10;;;7.30;;
5357;SDS011;2702;51.014;7.170;2023-03-01T15:06:47;8.50;;;7.60;;
5357;SDS011;2702;51.014;7.170;2023-03-01T15:09:16;8.90;;;8.00;;
5357;SDS011;2702;51.014;7.170;2023-03-01T15:11:43;8.83;;;7.37;;
5357;SDS011;2702;51.014;7.170;2023-03-01T15:17:26;10.27;;;7.40;;
5357;SDS011;2702;51.014;7.170;2023-03-01T15:19:53;8.17;;;7.37;;
5357;SDS011;2702;51.014;7.170;2023-03-01T15:22:19;8.37;;;7.40;;
5357;SDS011;2702;51.014;7.170;2023-03-01T15:24:48;11.97;;;9.30;;
5357;SDS011;2702;51.014;7.170;2023-03-01T15:27:19;11.30;;;9.50;;
5357;SDS011;2702;51.014;7.170;2023-03-01T15:29:50;9.50;;;7.10;;
5357;SDS011;2702;51.014;7.170;2023-03-01T15:32:31;8.47;;;7.40;;
5357;SDS011;2702;51.014;7.170;2023-03-01T15:34:59;9.80;;;7.43;;
5357;SDS011;2702;51.014;7.170;2023-03-01T15:37:46;10.00;;;7.83;;
5357;SDS011;2702;51.014;7.170;2023-03-01T15:40:27;10.60;;;6.60;;
5357;SDS011;2702;51.014;7.170;2023-03-01T15:42:57;8.47;;;6.07;;
5357;SDS011;2702;51.014;7.170;2023-03-01T15:45:29;11.60;;;6.60;;
5357;SDS011;2702;51.014;7.170;2023-03-01T15:48:02;8.80;;;5.77;;
5357;SDS011;2702;51.014;7.170;2023-03-01T15:50:32;8.87;;;6.97;;
5357;SDS011;2702;51.014;7.170;2023-03-01T15:53:01;8.10;;;7.30;;
5357;SDS011;2702;51.014;7.170;2023-03-01T15:55:33;7.53;;;6.83;;
5357;SDS011;2702;51.014;7.170;2023-03-01T15:58:09;10.67;;;7.80;;
5357;SDS011;2702;51.014;7.170;2023-03-01T16:00:39;8.53;;;7.20;;
5357;SDS011;2702;51.014;7.170;2023-03-01T16:03:05;8.50;;;7.07;;
5357;SDS011;2702;51.014;7.170;2023-03-01T16:05:34;8.20;;;6.50;;
5357;SDS011;2702;51.014;7.170;2023-03-01T16:08:01;7.63;;;6.43;;
5357;SDS011;2702;51.014;7.170;2023-03-01T16:10:28;9.43;;;7.20;;
5357;SDS011;2702;51.014;7.170;2023-03-01T16:12:56;8.10;;;6.73;;
5357;SDS011;2702;51.014;7.170;2023-03-01T16:15:23;7.57;;;6.63;;
5357;SDS011;2702;51.014;7.170;2023-03-01T16:17:57;7.40;;;6.43;;
5357;SDS011;2702;51.014;7.170;2023-03-01T16:20:23;8.10;;;7.30;;
5357;SDS011;2702;51.014;7.170;2023-03-01T16:22:50;8.37;;;6.40;;
5357;SDS011;2702;51.014;7.170;2023-03-01T16:25:18;9.40;;;6.30;;
5357;SDS011;2702;51.014;7.170;2023-03-01T16:27:46;9.20;;;7.07;;
5357;SDS011;2702;51.014;7.170;2023-03-01T16:30:14;8.90;;;7.07;;
5357;SDS011;2702;51.014;7.170;2023-03-01T16:32:42;10.10;;;6.60;;
5357;SDS011;2702;51.014;7.170;2023-03-01T16:35:11;7.37;;;6.60;;
5357;SDS011;2702;51.014;7.170;2023-03-01T16:37:39;7.40;;;6.27;;
5357;SDS011;2702;51.014;7.170;2023-03-01T16:40:07;7.33;;;6.60;;
5357;SDS011;2702;51.014;7.170;2023-03-01T16:42:43;10.00;;;6.83;;
5357;SDS011;2702;51.014;7.170;2023-03-01T16:45:09;9.00;;;6.40;;
5357;SDS011;2702;51.014;7.170;2023-03-01T16:47:35;7.60;;;6.27;;
5357;SDS011;2702;51.014;7.170;2023-03-01T16:50:01;7.10;;;6.40;;
5357;SDS011;2702;51.014;7.170;2023-03-01T16:52:27;7.20;;;6.50;;
5357;SDS011;2702;51.014;7.170;2023-03-01T16:54:53;7.33;;;6.40;;
5357;SDS011;2702;51.014;7.170;2023-03-01T16:57:19;10.00;;;7.87;;
5357;SDS011;2702;51.014;7.170;2023-03-01T16:59:44;11.27;;;8.47;;
5357;SDS011;2702;51.014;7.170;2023-03-01T17:02:11;9.13;;;7.73;;
5357;SDS011;2702;51.014;7.170;2023-03-01T17:04:44;9.40;;;6.70;;
5357;SDS011;2702;51.014;7.170;2023-03-01T17:07:10;10.43;;;6.90;;
5357;SDS011;2702;51.014;7.170;2023-03-01T17:09:36;10.43;;;7.10;;
5357;SDS011;2702;51.014;7.170;2023-03-01T17:12:03;9.00;;;7.07;;
5357;SDS011;2702;51.014;7.170;2023-03-01T17:14:29;7.37;;;6.13;;
5357;SDS011;2702;51.014;7.170;2023-03-01T17:16:55;7.20;;;6.30;;
5357;SDS011;2702;51.014;7.170;2023-03-01T17:19:21;7.70;;;6.90;;
5357;SDS011;2702;51.014;7.170;2023-03-01T17:21:47;7.10;;;6.40;;
5357;SDS011;2702;51.014;7.170;2023-03-01T17:24:13;9.23;;;7.20;;
5357;SDS011;2702;51.014;7.170;2023-03-01T17:26:39;7.07;;;6.07;;